x

9439040 - Astoria, Or (asto3) Weather Station

3:54 - Tue 21st Feb 2017 All times are PST. -8 hours from GMT.

  • Wind
    1mph, 2mph gusts
  • Sea Temp 42°f
  • Ar Temp 41°f
  • Sea Pressure 1005.4mb
  • 9439040 - Astoria, Or
  • 9439040 - Astoria, Or

More Historic Weather Station data

Upgrade to MSW Pro to gain access to the past 30 days of data for over 8000 Wavebouys and Weather Stations around the globe.

Join Pro

Comparision Forecast

View Surf forecast
   
Ter 02/21 3:54 1 2 mph 1005.4mb 42f 41f
3:48  -  1 mph 1005.4mb 42f 41f
3:42  -  1 mph 1005.3mb 42f 42f
3:36  -  1 mph 1005.3mb 42f 42f
3:30 1 2 mph 1005.2mb 42f 42f
3:24 2
mph
1005.2mb 42f 42f
3:18  -  1 mph 1005.2mb 42f 42f
3:12  -  1 mph 1005.2mb 42f 42f
3:06  -  2 mph 1005.2mb 42f 42f
3:00 1
mph
1005.2mb 42f 42f
2:54 1
mph
1005.2mb 42f 42f
2:48 1 2 mph 1005.3mb 42f 42f
2:42 1 2 mph 1005.2mb 42f 42f
2:36  -  1 mph 1005.3mb 42f 42f
2:30 1 2 mph 1005.2mb 42f 42f
2:24  -  1 mph 1005.2mb 42f 42f
2:18  -  1 mph 1005.3mb 42f 42f
2:12  -  3 mph 1005.2mb 42f 42f
2:06 2
mph
1005.2mb 42f 42f
2:00 1 2 mph 1005.2mb 42f 42f
1:54  -  2 mph 1005.3mb 42f 42f
1:48 1 2 mph 1005.3mb 42f 43f
1:42  -  3 mph 1005.4mb 42f 42f
1:36 3 7 mph 1005.4mb 42f 42f
1:30 5 7 mph 1005.4mb 42f 42f
1:24 2 7 mph 1005.4mb 42f 42f
1:18 6 8 mph 1005.4mb 42f 42f
1:12 3 7 mph 1005.4mb 42f 42f
1:06 2 6 mph 1005.5mb 42f 42f
1:00  -  1 mph 1005.4mb 42f 42f
12:54 1 2 mph 1005.4mb 42f 42f
12:48 1 2 mph 1005.4mb 42f 42f
12:42  -  1 mph 1005.4mb 42f 43f
12:36  -  1 mph 1005.2mb 42f 43f
12:30  -  2 mph 1005.2mb 42f 43f
12:24 2
mph
1005.1mb 42f 43f
12:18  -  3 mph 1005.1mb 42f 43f
12:12  -  1 mph 1005.1mb 42f 43f
12:06  -  1 mph 1005.1mb 42f 43f
12:00  -  1 mph 1005.1mb 42f 43f
Seg 02/20 11:54 1 2 mph 1005.1mb 42f 43f
11:48 1 2 mph 1005mb 42f 43f
11:42 1 5 mph 1005mb 42f 43f
11:36 3 8 mph 1004.9mb 42f 43f
11:30 6 8 mph 1004.9mb 42f 43f
11:24 6 8 mph 1004.9mb 42f 43f
11:18 6 8 mph 1004.9mb 42f 43f
11:12 3 6 mph 1004.9mb 42f 43f
11:06 2 3 mph 1005mb 42f 43f
11:00 2 3 mph 1005mb 42f 43f
10:54  -  6 mph 1005mb 42f 43f
10:48 5 6 mph 1005mb 42f 43f
10:42 3 5 mph 1005.1mb 42f 43f
10:36 3 5 mph 1005.1mb 42f 43f
10:30  -  3 mph 1005.1mb 42f 43f
10:24 1 2 mph 1005.1mb 42f 43f
10:18 1
mph
1005.2mb 42f 43f
10:12  -  1 mph 1005.2mb 42f 43f
10:06  -  1 mph 1005.3mb 42f 43f
10:00  -  2 mph 1005.4mb 42f 43f
9:54 3 5 mph 1005.4mb 42f 44f
9:48 1 2 mph 1005.4mb 42f -
9:42  -  3 mph 1005.5mb 42f -
9:36 1 2 mph 1005.5mb 42f -
9:30 2 5 mph 1005.5mb 42f 44f
9:24 3 6 mph 1005.5mb 42f 44f
9:18 3 6 mph 1005.5mb 42f 44f
9:12 3 7 mph 1005.5mb 42f 44f
9:06 5 6 mph 1005.4mb 42f 44f
9:00 5 6 mph 1005.4mb 42f 44f
8:54 5 6 mph 1005.5mb 42f 44f
8:48 6 7 mph 1005.4mb 42f 44f
8:42 3 6 mph 1005.4mb 42f 44f
8:36 5 6 mph 1005.4mb 42f 44f
8:30 6
mph
1005.4mb 42f 44f
8:24 5 6 mph 1005.3mb 42f 44f
8:18 2 5 mph 1005.2mb 42f 44f
8:12 2 3 mph 1005.3mb 42f 44f
8:06 3
mph
1005.3mb 42f 44f
8:00  -  2 mph 1005.3mb 42f 44f
7:54 2
mph
1005.3mb 42f 44f
7:48 1 5 mph 1005.4mb 42f 44f
7:42 3 5 mph 1005.5mb 42f 44f
7:36 2 3 mph 1005.4mb 42f 44f
7:30 2 5 mph 1005.5mb 42f 44f
7:24 2 6 mph 1005.5mb 42f 44f
7:18 3 6 mph 1005.6mb 42f 44f
7:12 3 6 mph 1005.6mb 42f 44f
7:06 5 6 mph 1005.6mb 42f 45f
7:00 3 5 mph 1005.7mb 42f 44f
6:54 3 7 mph 1005.6mb 42f 44f
6:48 6 7 mph 1005.6mb 42f 44f
6:42 3 5 mph 1005.5mb 42f 44f
6:36 5 7 mph 1005.5mb 42f 44f
6:30 5 6 mph 1005.5mb 42f 45f
6:24 2 3 mph 1005.6mb 42f 45f
6:18 2 3 mph 1005.5mb 42f 45f
6:12 2 3 mph 1005.6mb 42f 45f
6:06 1 2 mph 1005.6mb 42f 45f
6:00 2 3 mph 1005.6mb 42f 45f
5:48 2 5 mph 1005.7mb 42f 45f
5:42 1 2 mph 1005.7mb 42f 45f
5:36  -  1 mph 1005.7mb 42f 45f
5:30  -  1 mph 1005.6mb 42f 46f
5:24 2 3 mph 1005.6mb 42f 46f
5:18 2 5 mph 1005.6mb 42f 46f
5:12 3 6 mph 1005.6mb 42f 46f
5:06 5 8 mph 1005.6mb 42f 46f
5:00 6 7 mph 1005.6mb 42f 46f
4:54 5 6 mph 1005.6mb 42f 46f
4:48 5 6 mph 1005.6mb 42f 46f
4:42 6 8 mph 1005.6mb 42f 46f
4:36 6 8 mph 1005.6mb 42f 46f
4:30 6 8 mph 1005.5mb 42f 46f
4:24 6 8 mph 1005.5mb 42f 46f
4:18 6 8 mph 1005.5mb 42f 46f
4:12 6 9 mph 1005.4mb 42f 46f
4:06 8 9 mph 1005.4mb 42f 46f
4:00 5 7 mph 1005.4mb 42f 46f
3:54 7 10 mph 1005.3mb 42f 46f
3:48 5 7 mph 1005.3mb 42f 46f
3:42 5 8 mph 1005.3mb 42f 46f
3:36 7 11 mph 1005.2mb 42f 46f
3:30 6 7 mph 1005.1mb 42f 46f
3:24 6 9 mph 1005.1mb 42f 46f
3:18 6 9 mph 1005mb 42f 46f
3:12 6 11 mph 1005mb 42f 46f
3:06 10 14 mph 1004.9mb 42f 47f
3:00 6 10 mph 1004.9mb 42f 47f
2:54 9 14 mph 1004.8mb 42f 47f
2:48 7 14 mph 1004.7mb 42f 47f
2:42 7 14 mph 1004.7mb 42f 47f
2:36 8 11 mph 1004.6mb 42f 47f
2:30 6 9 mph 1004.5mb 42f 47f
2:24 6 8 mph 1004.5mb 42f 47f
2:18 6 8 mph 1004.4mb 42f 47f
2:12 6 8 mph 1004.4mb 42f 46f
2:06 6 7 mph 1004.3mb 42f 46f
2:00 7 11 mph 1004.3mb 42f 46f
1:54 8 9 mph 1004.3mb 42f 46f
1:48 7 9 mph 1004.2mb 42f 46f
1:42 8 11 mph 1004.2mb 42f 46f
1:36 13 15 mph 1004.2mb 42f 46f
1:30 10 14 mph 1004.2mb 42f 46f
1:24 10 15 mph 1004.2mb 42f 46f
1:18 14 17 mph 1004.2mb 42f 46f
1:12 10 15 mph 1004.1mb 42f 46f
1:06 11 14 mph 1003.9mb 42f 46f
1:00 11 15 mph 1003.8mb 42f 46f
12:54 9 13 mph 1003.7mb 42f 46f
12:48 9 11 mph 1003.6mb 42f 46f
12:42 9 13 mph 1003.6mb 42f 46f
12:36 9 11 mph 1003.6mb 42f 46f
12:30 7 9 mph 1003.5mb 42f 45f
12:24 5 9 mph 1003.4mb 42f 45f
12:18 2 3 mph 1003.4mb 42f 44f
12:12 5 8 mph 1003.3mb 42f 44f
12:06 6 7 mph 1003.1mb 42f 44f
12:00 6
mph
1003mb 42f 44f
11:54 1 2 mph 1002.9mb 42f 44f
11:48  -  1 mph 1002.6mb 42f 44f
11:42 1 2 mph 1002.5mb 42f 43f
11:36 2
mph
1002.4mb 42f 43f
11:30 1 5 mph 1002.2mb 42f 43f
11:24 3
mph
1002mb 42f 43f
11:18 5
mph
1001.9mb 42f 43f
11:00 2 3 mph 1001.2mb 42f 43f
10:54 3
mph
1001mb 42f 43f
10:48 2
mph
1000.7mb 42f 43f
10:42  -  1 mph 1000.5mb 42f 43f
10:36  -  mph 1000.3mb 42f 44f
10:30  -  1 mph 1000.1mb 42f 43f
10:24 1 2 mph 999.8mb 42f 43f
10:18 2 3 mph 999.6mb 42f 43f
10:12 2 3 mph 999.4mb 42f 43f
10:06 3 5 mph 999.2mb 42f 43f
10:00 3 7 mph 999mb 42f 43f
9:54 5 6 mph 998.7mb 42f 43f
9:48 6 7 mph 998.5mb 42f 43f
9:42 6 7 mph 998.4mb 42f 43f
9:36 6 8 mph 998.2mb 42f 43f
9:30 5 7 mph 998mb 42f 43f
9:24 6 7 mph 997.9mb 42f 43f
9:18 5 7 mph 997.8mb 42f 43f
9:12 5 9 mph 997.7mb 42f 43f
9:06 3 6 mph 997.6mb 42f 42f
9:00 3 5 mph 997.6mb 42f 42f
8:54 2 7 mph 997.4mb 42f 43f
8:48 5 8 mph 997.3mb 42f 42f
8:42 6 8 mph 997.2mb 42f 42f
8:36 5 7 mph 997.2mb 42f 43f
8:30 5 8 mph 997.1mb 42f 42f
8:24 6 8 mph 997mb 42f 43f
8:18 6 9 mph 996.9mb 42f 43f
8:12 6 9 mph 996.9mb 42f 43f
8:06 6 8 mph 996.9mb 42f 43f
8:00 6 9 mph 996.9mb 42f 43f
7:54 7 10 mph 996.9mb 42f 43f
7:48 7 10 mph 996.8mb 42f 43f
7:42 6 9 mph 996.7mb 42f 43f
7:36 7 11 mph 996.6mb 42f 43f
7:30 7 8 mph 996.5mb 42f 43f
7:24 5 8 mph 996.6mb 42f 42f
7:18 6 8 mph 996.5mb 42f 43f
7:12 5 8 mph 996.5mb 42f 42f
7:06 2 7 mph 996.5mb 42f 42f
7:00 5 6 mph 996.5mb 42f 42f
6:54 3 5 mph 996.5mb 42f 42f
6:48 3 5 mph 996.6mb 42f 42f
6:42 3 5 mph 996.8mb 42f 42f
6:36 2 5 mph 996.9mb 42f 42f
6:30 2 3 mph 996.9mb 42f 42f
6:24 5
mph
996.8mb 42f 42f
6:18 2 3 mph 996.9mb 42f 43f
6:12 2 7 mph 997mb 42f 43f
6:06 5 6 mph 997.1mb 42f 43f
6:00 3 7 mph 997mb 42f 43f
5:54 3 8 mph 997.1mb 42f 43f
5:48 7 8 mph 997mb 42f 43f
5:42 6 9 mph 997.1mb 42f 43f
5:36 7 9 mph 997.1mb 42f 43f
5:30 6 9 mph 997.2mb 42f 43f
5:24 6 9 mph 997.4mb 42f 43f
5:18 6 9 mph 997.4mb 42f 43f
5:12 5 8 mph 997.5mb 42f 43f
5:06 5 7 mph 997.6mb 42f 43f
5:00 6 9 mph 997.7mb 42f 43f
4:54 6 8 mph 997.8mb 42f 43f
4:48 3 6 mph 997.9mb 42f 43f
4:42 3 5 mph 998.1mb 42f 43f
4:36 5 7 mph 998.1mb 42f 43f
4:30 3 7 mph 998mb 42f 43f
4:24 2 7 mph 998mb 42f 42f
4:18 5 7 mph 998mb 42f 43f
4:12 3 5 mph 998.1mb 42f 42f
4:06 5 7 mph 998.2mb 42f 43f
4:00 5 6 mph 998.3mb 42f 42f
3:54 2 5 mph 998.3mb 42f 42f
3:48 3 7 mph 998.5mb 42f 43f
3:42 5 9 mph 998.7mb 42f 43f
3:36 3 8 mph 998.7mb 42f 43f
3:30 5 8 mph 998.8mb 42f 43f
3:24 6 11 mph 998.9mb 42f 43f
3:18 6 8 mph 999mb 42f 42f
3:12 3 7 mph 999.2mb 42f 42f
3:06 5 8 mph 999.4mb 42f 43f
3:00 6 8 mph 999.5mb 42f 42f
2:54 6 7 mph 999.6mb 42f 42f
2:48 6 10 mph 999.7mb 42f 42f
2:42 9 11 mph 999.8mb 42f 43f
2:36 9 11 mph 999.9mb 42f 43f
2:30 7 11 mph 1000.1mb 42f 43f
2:24 6 10 mph 1000.2mb 42f 43f
2:18 7 11 mph 1000.3mb 42f 43f
2:12 8 10 mph 1000.4mb 42f 43f
2:06 6 8 mph 1000.7mb 42f 42f
2:00 7 8 mph 1000.8mb 42f 42f
1:54 5 7 mph 1000.9mb 42f 42f
1:48 3 5 mph 1001mb 42f 42f
1:42 2 8 mph 1001.1mb 42f 42f
1:36 6 7 mph 1001.1mb 42f 42f
1:30 3 7 mph 1001.3mb 42f 42f
1:24 3 8 mph 1001.3mb 42f 42f
1:18 2 5 mph 1001.4mb 42f 42f
1:12 2 6 mph 1001.4mb 42f 42f
1:06 5 6 mph 1001.5mb 42f 42f
1:00 1 3 mph 1001.5mb 42f 42f
12:54 5 10 mph 1001.4mb 42f 43f
12:48 3 9 mph 1001.3mb 42f 42f
12:42 5 8 mph 1001.3mb 42f 42f
12:36 6 9 mph 1001.4mb 42f 42f
12:30 7 9 mph 1001.4mb 42f 42f
12:24 6 10 mph 1001.4mb 42f 42f
12:18 3 7 mph 1001.5mb 42f 42f
12:12 5 7 mph 1001.6mb 42f 42f
12:06 3 9 mph 1001.7mb 42f 42f
12:00 2 7 mph 1001.7mb 42f 42f
Dom 02/19 11:54 2 6 mph 1001.8mb 42f 42f
11:48 3 8 mph 1001.8mb 42f 42f
11:42 8 10 mph 1001.8mb 42f 42f
11:36 5 9 mph 1001.9mb 42f 42f
11:30 3 10 mph 1002mb 42f 42f
11:24 5 9 mph 1002mb 42f 42f
11:18 6 9 mph 1002.1mb 42f 42f
11:12 5 7 mph 1002.2mb 41f 42f
11:06 5 6 mph 1002.3mb 41f 42f
11:00 5 8 mph 1002.4mb 41f 42f
10:54 3 5 mph 1002.4mb 41f 42f
10:48 2 3 mph 1002.5mb 41f 42f
10:42 1 3 mph 1002.4mb 41f 42f
10:36  -  6 mph 1002.4mb 41f 42f
10:30 2 6 mph 1002.4mb 41f 42f
10:24 5 9 mph 1002.4mb 42f 42f
10:18 6 7 mph 1002.4mb 42f 42f
10:12 2 3 mph 1002.5mb 42f 42f
10:06  -  1 mph 1002.5mb 42f 42f
10:00 1 3 mph 1002.4mb 42f 42f
9:54  -  8 mph 1002.4mb 42f 42f
9:48 3 6 mph 1002.3mb 42f 42f
9:42 2 7 mph 1002.2mb 42f 42f
9:36 5 6 mph 1002.1mb 42f 42f
9:30 5 6 mph 1002mb 42f 42f
9:24 5 9 mph 1002mb 42f 42f
9:18 3 7 mph 1001.9mb 42f 42f
9:12 2 7 mph 1001.9mb 42f 42f
9:06 3 7 mph 1001.8mb 42f 42f
9:00 5 8 mph 1001.8mb 42f 42f
8:54 3 8 mph 1001.8mb 41f 42f
8:48 5 7 mph 1001.8mb 41f 42f
8:42 2 6 mph 1001.8mb 41f 42f
8:36 3 7 mph 1001.8mb 42f 42f
8:30 2 6 mph 1001.7mb 42f 42f
8:24 3 9 mph 1001.7mb 42f 42f
8:18 6 9 mph 1001.7mb 42f 42f
8:12 2 5 mph 1001.7mb 42f 43f
8:06 3 7 mph 1001.6mb 42f 43f
8:00 6 8 mph 1001.6mb 42f 43f
7:54 5 7 mph 1001.6mb 42f 43f
7:48 5 7 mph 1001.5mb 42f 44f
7:42 5 7 mph 1001.5mb 42f 44f
7:36 5 8 mph 1001.5mb 42f 44f
7:30 8 10 mph 1001.4mb 42f 44f
7:24 9 10 mph 1001.4mb 42f 44f
7:18 9 10 mph 1001.3mb 42f 44f
7:12 9 10 mph 1001.3mb 42f 44f
7:06 8 9 mph 1001.4mb 42f 44f
7:00 7 9 mph 1001.3mb 42f 44f
6:54 7 11 mph 1001.3mb 42f 44f
6:48 9 16 mph 1001.3mb 42f 45f
6:42 10 13 mph 1001.1mb 42f 45f
6:36 8 11 mph 1001mb 42f 44f
6:30 8 11 mph 1000.9mb 42f 44f
6:24 9 11 mph 1000.9mb 42f 45f
6:18 8 10 mph 1000.8mb 42f 45f
6:12 8 10 mph 1000.6mb 42f 45f
6:06 8 13 mph 1000.6mb 42f 45f
6:00 7 10 mph 1000.5mb 42f 45f
5:54 8 13 mph 1000.5mb 42f 45f
5:48 9 14 mph 1000.4mb 42f 46f
5:42 9 13 mph 1000.3mb 42f 45f
5:36 9 13 mph 1000.2mb 42f 46f
5:30 7 8 mph 1000.2mb 42f 45f
5:24 7 9 mph 1000mb 42f 45f
5:18 6 7 mph 999.9mb 42f 45f
5:12 6 11 mph 999.8mb 42f 45f
5:06 7 10 mph 999.8mb 42f 45f
5:00 6 11 mph 999.7mb 42f 46f
4:54 7 14 mph 999.7mb 42f 46f
4:48 11 17 mph 999.7mb 42f 46f
4:42 11 17 mph 999.6mb 42f 46f
4:36 10 18 mph 999.6mb 42f 46f
4:30 11 16 mph 999.6mb 42f 47f
4:24 10 15 mph 999.4mb 42f 47f
4:18 7 13 mph 999.4mb 42f 47f
4:12 5 9 mph 999.3mb 42f 46f
4:06 1 6 mph 999mb 42f 46f
4:00 3 8 mph 999.1mb 42f 46f
3:54 6 9 mph 999.2mb 42f 46f
3:48 3 6 mph 998.9mb 42f 46f
3:42 5 6 mph 998.7mb 42f 46f
3:36 6 9 mph 998.7mb 42f 46f
3:30 5 9 mph 998.6mb 42f 46f
3:24 7 11 mph 998.5mb 42f 46f
3:18 7 11 mph 998.5mb 42f 46f
3:12 8 14 mph 998.4mb 42f 47f
3:06 10 17 mph 998.4mb 42f 47f
3:00 10 15 mph 998.4mb 42f 48f
2:54 7 11 mph 998.4mb 42f 47f
2:48 11 17 mph 998.2mb 42f 47f
2:42 8 11 mph 998.1mb 42f 47f
2:36 5 11 mph 998.2mb 42f 47f
2:30 8 13 mph 998.2mb 42f 47f
2:24 6 13 mph 998.1mb 42f 47f
2:18 6 9 mph 998.1mb 41f 47f
2:12 6 11 mph 998.1mb 41f 47f
2:06 9 14 mph 998mb 41f 47f
2:00 9 14 mph 998.1mb 41f 47f
1:54 9 13 mph 998.1mb 41f 46f
1:48 10 17 mph 998.1mb 41f 46f
1:42 10 15 mph 998mb 41f 46f
1:36 8 14 mph 998mb 41f 46f
1:30 9 14 mph 998mb 41f 46f
1:24 5 14 mph 997.9mb 41f 45f
1:18 11 18 mph 997.9mb 41f 45f
1:12 7 10 mph 997.6mb 41f 45f
1:06 2 6 mph 997.3mb 41f 44f
1:00 2 6 mph 997.4mb 41f 44f
12:54 3 6 mph 997.4mb 41f 44f
12:48 2 3 mph 997.5mb 41f 44f
12:42 2 6 mph 997.6mb 41f 44f
12:36 2 6 mph 997.6mb 41f 43f
12:30 3 6 mph 997.6mb 41f 42f
12:24 3 6 mph 997.8mb 41f 42f
12:18 5 9 mph 997.9mb 41f 42f
12:12 3 8 mph 997.9mb 41f 42f
12:06 5 8 mph 998.1mb 41f 42f
12:00 6 11 mph 998.1mb 41f 42f
11:54 7 14 mph 997.9mb 41f 42f
11:48 9 15 mph 997.9mb 41f 41f
11:42 9 14 mph 997.8mb 41f 41f
11:36 9 13 mph 997.7mb 41f 41f
11:30 8 14 mph 997.6mb 41f 41f
11:24 10 13 mph 997.6mb 41f 41f
11:18 9 11 mph 997.5mb 41f 42f
11:12 8 14 mph 997.5mb 41f 41f
11:06 8 11 mph 997.6mb 41f 41f
11:00 6 7 mph 997.8mb 41f 41f
10:54 5 10 mph 997.5mb 41f 41f
10:48 3 9 mph 997mb 41f 41f
10:42 8 14 mph 997mb 41f 41f
10:36 8 10 mph 997.1mb 41f 41f
10:30 7 13 mph 997mb 41f 41f
10:24 11 15 mph 996.8mb 41f 41f
10:18 10 16 mph 996.8mb 41f 41f
10:12 8 15 mph 996.9mb 41f 42f
10:06 6 11 mph 997mb 41f 42f
10:00 9 15 mph 996.7mb 41f 42f
9:54 6 8 mph 996.5mb 41f 42f
9:48 5 11 mph 996.5mb 41f 42f
9:42 3 10 mph 996.5mb 41f 42f
9:36 6 11 mph 996.4mb 41f 42f
9:30 5 9 mph 996.2mb 41f 41f
9:24 8 14 mph 996.1mb 41f 42f
9:18 8 14 mph 996.3mb 41f 42f
9:12 8 15 mph 996.3mb 41f 42f
9:06 11 15 mph 996.2mb 41f 42f
9:00 6 9 mph 996.1mb 41f 41f
8:54 2 6 mph 996.1mb 41f 41f
8:48 6 9 mph 996mb 41f 41f
8:42 7 10 mph 996.1mb 41f 41f
8:36 2 9 mph 995.7mb 41f 41f
8:30 7 9 mph 995.6mb 41f 41f
8:24 3 9 mph 995.5mb 41f 41f
8:18 2 6 mph 995.4mb 41f 41f
8:12 5 9 mph 995.4mb 41f 41f
8:06 6 10 mph 995.4mb 41f 41f
8:00 7 11 mph 995.6mb 41f 41f
7:54 9 13 mph 995.6mb 41f 42f
7:48 2 7 mph 995.4mb 41f 41f
7:42 6 8 mph 995.1mb 41f 41f
7:36 3 8 mph 995.1mb 41f 41f
7:30 5 10 mph 995.3mb 41f 41f
7:24 6 13 mph 995.3mb 41f 40f
7:18 3 9 mph 995.3mb 41f 40f
7:12 5 9 mph 995.3mb 41f 40f
7:06 5 7 mph 995.1mb 41f 40f
7:00 5 11 mph 995.2mb 41f 40f
6:54 7 13 mph 995.3mb 41f 41f
6:48 10 15 mph 995.1mb 41f 41f
6:42 8 13 mph 995.1mb 41f 40f
6:36 11 16 mph 995.1mb 41f 40f
6:30 8 13 mph 994.9mb 41f 40f
6:24 8 11 mph 994.9mb 41f 41f
6:18 7 13 mph 994.9mb 41f 41f
6:12 11 15 mph 994.8mb 41f 41f
6:06 9 16 mph 994.9mb 41f 41f
6:00 11 18 mph 994.9mb 41f 41f
5:54 13 20 mph 994.8mb 41f 41f
5:48 11 20 mph 995.1mb 41f 41f
5:42 11 18 mph 995mb 41f 42f
5:36 9 14 mph 994.7mb 41f 41f
5:30 8 14 mph 994.5mb 41f 41f
5:24 8 11 mph 994.5mb 41f 41f
5:18 6 11 mph 994.5mb 41f 41f
5:12 8 10 mph 994.5mb 41f 42f
5:06 10 16 mph 994.6mb 41f 42f
5:00 6 9 mph 994.8mb 41f 41f
4:54 6 7 mph 994.8mb 41f 41f
4:48 3 7 mph 994.5mb 41f 41f
4:42 3 5 mph 994.2mb 41f 40f
4:36  -  2 mph 994.3mb 41f 40f
4:30 1 2 mph 994.3mb 41f 40f
4:24  -  2 mph 994.2mb 41f 40f
4:18  -  2 mph 994.2mb 41f 41f
4:12 2 3 mph 994.2mb 41f 41f
4:06 1 2 mph 994.1mb 41f 40f
4:00 2 3 mph 994mb 41f 41f
3:54 1 2 mph 993.9mb 41f 40f
3:48 1 3 mph 993.9mb 41f 41f
3:42 1 5 mph 994mb 41f 41f
3:36 2 8 mph 994mb 41f 41f
3:30 3 8 mph 994.1mb 41f 41f
3:24 3 7 mph 994.2mb 41f 41f
3:18 5 9 mph 994.1mb 41f 41f
3:12 5 7 mph 994.1mb 41f 41f
3:06  -  7 mph 994.2mb 41f 40f
3:00 6 8 mph 994.3mb 41f 40f
2:54 3 8 mph 994.3mb 41f 40f
2:48 6 9 mph 994.4mb 41f 40f
2:42 3 6 mph 994.4mb 41f 40f
2:36 3 9 mph 994.4mb 41f 40f
2:30 3 6 mph 994.4mb 41f 40f
2:24 5 7 mph 994.4mb 41f 40f
2:18 3 9 mph 994.6mb 41f 40f
2:12 3 7 mph 994.6mb 41f 40f
2:06 3 11 mph 994.6mb 41f 40f
2:00 8 11 mph 994.5mb 41f 40f
1:54 2 6 mph 994.7mb 41f 40f
1:48 3 7 mph 994.8mb 41f 40f
1:42 3 6 mph 994.8mb 41f 40f
1:36 3 10 mph 994.8mb 41f 40f
1:30 2 8 mph 994.8mb 41f 40f
1:24 6 11 mph 994.8mb 41f 40f
1:18 2 5 mph 994.9mb 41f 40f
1:12 2 7 mph 994.9mb 41f 40f
1:06 5 11 mph 995.2mb 41f 40f
1:00 7 11 mph 995.4mb 41f 40f
12:54 3 6 mph 995.3mb 41f 41f
12:48 1 6 mph 995.2mb 41f 41f
12:42 2 6 mph 995.2mb 41f 41f
12:36 2 5 mph 995.4mb 41f 41f
12:30 2 6 mph 995.4mb 41f 41f
12:24 2 3 mph 995.5mb 41f 41f
12:18 2 3 mph 995.6mb 41f 41f
12:12 3 6 mph 995.7mb 41f 41f
12:06 1 3 mph 995.7mb 41f 41f
12:00 1 5 mph 995.7mb 41f 41f
Sáb 02/18 11:54 3 5 mph 995.7mb 41f 41f
11:48 3 6 mph 995.8mb 41f 41f
11:42 2 3 mph 995.9mb 41f 41f
11:36  -  2 mph 996mb 41f 41f
11:30 1 3 mph 996.1mb 41f 41f
11:24 1 5 mph 996.1mb 41f 41f
11:18 2 3 mph 996.2mb 41f 41f
11:12 1 2 mph 996.2mb 41f 41f
11:06 2 5 mph 996.2mb 41f 41f
11:00  -  1 mph 996.3mb 41f 41f
10:54 1 2 mph 996.4mb 41f 41f
10:48  -  2 mph 996.4mb 41f 41f
10:42  -  3 mph 996.4mb 41f 41f
10:36  -  2 mph 996.5mb 41f 41f
10:30  -  2 mph 996.6mb 41f 41f
10:24 2 6 mph 996.6mb 41f 41f
10:18 3 9 mph 996.6mb 41f 42f
10:12 5 6 mph 996.6mb 41f 41f
10:06 2 3 mph 996.6mb 41f 41f
10:00 2
mph
996.6mb 41f 41f
9:54  -  1 mph 996.6mb 42f 41f
9:48 2 5 mph 996.6mb 41f 41f
9:42 1 3 mph 996.7mb 41f 41f
9:36 1 2 mph 996.7mb 41f 41f
9:30  -  2 mph 996.7mb 41f 42f
9:24 3 5 mph 996.7mb 42f 42f
9:18 2 5 mph 996.7mb 42f 42f
9:12 2 3 mph 996.7mb 42f 41f
9:06 3 5 mph 996.8mb 42f 41f
9:00 3 5 mph 996.9mb 42f 41f
8:54 5 7 mph 997mb 42f 42f
8:48 3 5 mph 997mb 42f 42f
8:42 3 5 mph 997.1mb 42f 42f
8:36  -  5 mph 997.2mb 42f 42f
8:30 5 7 mph 997.2mb 42f 42f
8:24 6 7 mph 997.1mb 41f 42f
8:18 6 9 mph 997mb 42f 42f
8:12 7 10 mph 997mb 42f 42f
8:06 8 11 mph 997.1mb 41f 43f
8:00 8 11 mph 997.1mb 41f 43f
7:54 9 13 mph 997.1mb 41f 42f
7:48 8 9 mph 997.2mb 41f 42f
7:42 7 10 mph 997.2mb 41f 43f
7:36 7 11 mph 997.2mb 41f 43f
7:30 5 8 mph 997.1mb 41f 43f
7:24 6 8 mph 997.2mb 41f 43f
7:18 6 8 mph 997.3mb 41f 43f
7:12 6 10 mph 997.3mb 42f 43f
7:06 7 14 mph 997.3mb 42f 43f
7:00 5
mph
997.3mb 42f 43f
6:54 5
mph
997.3mb 42f 44f
6:48 3 5 mph 997.2mb 42f 44f
6:42 3 6 mph 997.2mb 42f 44f
6:36 6 7 mph 997.3mb 42f 44f
6:30 5 6 mph 997.3mb 42f 44f
6:24 2 3 mph 997.3mb 42f 44f
6:18 3 6 mph 997.3mb 42f 44f
6:12 3 5 mph 997.3mb 42f 44f
6:06 2 6 mph 997.2mb 42f 44f
6:00 5
mph
997.2mb 42f 44f
5:54 3 6 mph 997.1mb 42f 44f
5:48 3 9 mph 997.1mb 42f 44f
5:42 6 7 mph 997.2mb 42f 44f
5:36 3 7 mph 997.1mb 42f 44f
5:30 5 6 mph 997.2mb 42f 44f
5:24 5 6 mph 997.2mb 42f 44f
5:18 5 6 mph 997.2mb 42f 44f
5:12 5 6 mph 997.2mb 42f 44f
5:06 2 5 mph 997.3mb 42f 43f
5:00 3 6 mph 997.2mb 42f 43f
4:54 5 6 mph 997.2mb 42f 43f
4:48 3 5 mph 997.2mb 42f 43f
4:42 3 6 mph 997.2mb 42f 43f
4:36 3 6 mph 997.1mb 42f 43f
4:30 6 8 mph 997.1mb 42f 43f
4:24 3 5 mph 997.1mb 42f 43f
4:18 1 3 mph 997.1mb 42f 43f
4:12 2 5 mph 997.1mb 42f 43f
4:06 3 5 mph 997mb 42f 43f
4:00 5 7 mph 997mb 42f 44f
3:54 6 8 mph 997mb 42f 44f
3:48 6 9 mph 997.1mb 42f 44f
3:42 9 11 mph 997.1mb 42f 44f
3:36 6 9 mph 997.1mb 42f 44f
3:30 8 10 mph 997mb 42f 45f
3:24 3 5 mph 997mb 42f 45f
3:18 2 3 mph 996.9mb 42f 44f
3:12 2 3 mph 996.9mb 42f 44f
3:06 2 6 mph 996.9mb 42f 44f
3:00 5 7 mph 996.9mb 42f 44f
2:54 7
mph
996.9mb 42f 45f
2:48 7
mph
996.9mb 42f 45f
2:42 2 5 mph 996.9mb 42f 44f
2:36 3 6 mph 996.9mb 42f 44f
2:30 5 7 mph 996.9mb 42f 44f
2:24 6 8 mph 996.8mb 42f 44f
2:18 6 7 mph 996.7mb 42f 45f
2:12 5 7 mph 996.7mb 42f 45f
2:06 6 8 mph 996.7mb 42f 45f
2:00 2 3 mph 996.7mb 42f 45f
1:54 3 6 mph 996.6mb 42f 45f
1:48 2 5 mph 996.6mb 42f 46f
1:42 1 3 mph 996.6mb 42f 46f
1:36 2 3 mph 996.6mb 42f 47f
1:30  -  2 mph 996.6mb 42f 47f
1:24 1 5 mph 996.8mb 42f 46f
1:18 1 2 mph 996.6mb 42f 46f
1:12 1 2 mph 996.7mb 42f 45f
1:06  -  1 mph 996.8mb 42f 44f
1:00  -  1 mph 996.8mb 42f 44f
12:54  -  2 mph 996.8mb 42f 43f
12:48 3
mph
996.8mb 42f 42f
12:42  -  2 mph 996.9mb 42f 42f
12:36 2
mph
996.8mb 42f 42f
12:30  -  1 mph 996.8mb 42f 43f
12:24  -  2 mph 996.7mb 41f 43f
12:18 2
mph
996.7mb 41f 42f
12:12  -  2 mph 996.6mb 41f 43f
12:06 1 3 mph 996.7mb 41f 43f
12:00 2 3 mph 996.7mb 41f 42f
11:54  -  1 mph 996.7mb 41f 43f
11:48 1
mph
996.7mb 41f 43f
11:42  -  1 mph 996.7mb 41f 44f
11:36  -  1 mph 996.6mb 41f 44f
11:30  -  1 mph 996.7mb 41f 44f
11:24  -  1 mph 996.8mb 41f 44f
11:18  -  mph 996.7mb 41f 44f
11:12  -  1 mph 996.7mb 41f 44f
11:06  -  1 mph 996.7mb 41f 43f
11:00 1 2 mph 996.7mb 41f 43f
10:54 2 3 mph 996.7mb 41f 44f
10:48  -  2 mph 996.7mb 42f 44f
10:42 1 2 mph 996.7mb 42f 44f
10:36 2 3 mph 996.7mb 42f 44f
10:30 2 3 mph 996.7mb 41f 44f
10:24 1 3 mph 996.6mb 41f 44f
10:18 2 3 mph 996.6mb 41f 43f
10:12 2 5 mph 996.7mb 42f 43f
10:06 1 3 mph 996.7mb 42f 43f
10:00  -  1 mph 996.7mb 42f 44f
9:54  -  2 mph 996.7mb 42f 44f
9:48  -  3 mph 996.8mb 42f 43f
9:42 1 5 mph 996.7mb 42f 43f
9:36 2 3 mph 996.6mb 42f 43f
9:30 2 3 mph 996.7mb 42f 42f
9:24 2 5 mph 996.7mb 42f 42f
9:18 5 6 mph 996.7mb 42f 42f
9:12 3 5 mph 996.6mb 42f 42f
9:06 3 6 mph 996.5mb 42f 42f
9:00 5 6 mph 996.6mb 42f 42f
8:54 5 6 mph 996.5mb 42f 42f
8:48 2 3 mph 996.5mb 42f 42f
8:42 3 6 mph 996.6mb 41f 42f
8:36 3 6 mph 996.6mb 41f 42f
8:30 3 6 mph 996.4mb 41f 42f
8:24 3 5 mph 996.4mb 42f 42f
8:18 3 6 mph 996.4mb 42f 42f
8:12 3 6 mph 996.3mb 42f 42f
8:06 3 6 mph 996.4mb 42f 42f
8:00 3 6 mph 996.4mb 42f 42f
7:54 5 7 mph 996.5mb 42f 42f
7:48 5 6 mph 996.5mb 42f 42f
7:42 3 5 mph 996.3mb 42f 43f
7:36 2 3 mph 996.3mb 42f 43f
7:30  -  1 mph 996.4mb 42f 43f
7:24 1 3 mph 996.4mb 42f 43f
7:18 2 6 mph 996.4mb 42f 43f
7:12 3 9 mph 996.4mb 42f 44f
7:06 6 9 mph 996.5mb 42f 44f
7:00 6 8 mph 996.4mb 42f 44f
6:54 5 6 mph 996.5mb 42f 44f
6:48 5 8 mph 996.5mb 42f 44f
6:42 5 8 mph 996.5mb 42f 44f
6:36 5 7 mph 996.5mb 42f 44f
6:30 5 9 mph 996.5mb 42f 44f
6:24 6 9 mph 996.5mb 42f 44f
6:18 6 9 mph 996.6mb 42f 44f
6:12 7 9 mph 996.6mb 41f 44f
6:06 7 9 mph 996.6mb 41f 44f
6:00 8 9 mph 996.6mb 41f 43f
5:54 6 8 mph 996.6mb 41f 43f
5:48 5 8 mph 996.6mb 41f 43f
5:42 6 10 mph 996.6mb 41f 43f
5:36 8 10 mph 996.6mb 41f 44f
5:30 8 10 mph 996.6mb 41f 44f
5:24 7 9 mph 996.6mb 41f 43f
5:18 7 10 mph 996.6mb 41f 43f
5:12 8 10 mph 996.5mb 41f 43f
5:06 8 10 mph 996.5mb 42f 44f
5:00 3 9 mph 996.5mb 42f 44f
4:54 5 8 mph 996.4mb 42f 44f
4:48 2 6 mph 996.4mb 42f 44f
4:42 2 6 mph 996.4mb 42f 43f
4:36 1 2 mph 996.4mb 42f 43f
4:30 2 7 mph 996.3mb 42f 44f
4:24 3 9 mph 996.3mb 42f 44f
4:18 2 5 mph 996.3mb 42f 43f
4:12 1 5 mph 996.3mb 42f 43f
4:06 3 5 mph 996.3mb 41f 43f
4:00 3 5 mph 996.4mb 41f 43f
3:54 3 5 mph 996.4mb 41f 43f
3:48 2 6 mph 996.4mb 42f 43f
3:42 3 5 mph 996.4mb 42f 43f
3:36 2 8 mph 996.4mb 42f 44f
3:30 9 14 mph 996.3mb 42f 44f
3:24 10 14 mph 996.3mb 41f 45f
3:18 11 14 mph 996.3mb 41f 44f
3:12 10 13 mph 996.3mb 41f 44f
3:06 10 13 mph 996.4mb 41f 44f
3:00 7 11 mph 996.3mb 42f 45f
2:54 7 10 mph 996.3mb 42f 44f
2:48 9 11 mph 996.3mb 42f 44f
2:42 9 10 mph 996.4mb 42f 44f
2:36 7 9 mph 996.4mb 42f 44f
2:30 7 9 mph 996.4mb 42f 44f
2:24 6 10 mph 996.5mb 42f 44f
2:18 9 11 mph 996.4mb 42f 44f
2:12 9 10 mph 996.3mb 42f 45f
2:06 8 10 mph 996.3mb 42f 45f
2:00 7 10 mph 996.4mb 42f 45f
1:54 8 10 mph 996.4mb 42f 45f
1:48 7 10 mph 996.4mb 42f 45f
1:42 6 9 mph 996.4mb 42f 46f
1:36 7 11 mph 996.4mb 42f 46f
1:30 8 11 mph 996.3mb 42f 46f
1:24 7 11 mph 996.3mb 42f 46f
1:18 8 11 mph 996.3mb 42f 46f
1:12 8 11 mph 996.3mb 41f 46f
1:06 9 14 mph 996.3mb 41f 46f
1:00 8 13 mph 996.4mb 41f 46f
12:54 9 14 mph 996.4mb 41f 46f
12:48 9 14 mph 996.5mb 41f 46f
12:42 8 9 mph 996.5mb 41f 45f
12:36 7 10 mph 996.5mb 41f 45f
12:30 7 10 mph 996.5mb 41f 45f
12:24 8 11 mph 996.6mb 41f 46f
12:18 8 10 mph 996.6mb 41f 46f
12:12 7 10 mph 996.5mb 41f 46f
12:06 8 11 mph 996.4mb 41f 46f
12:00 8 10 mph 996.5mb 41f 46f
Sex 02/17 11:54 7 11 mph 996.5mb 41f 46f
11:48 7 14 mph 996.6mb 41f 46f
11:42 8 14 mph 996.7mb 41f 46f
11:36 9 13 mph 996.7mb 41f 47f
11:30 7 13 mph 996.7mb 41f 47f
11:24 8 13 mph 996.8mb 41f 47f
11:18 6 13 mph 996.8mb 41f 47f
11:12 6 11 mph 996.8mb 41f 47f
11:06 7 10 mph 996.9mb 41f 47f
11:00 5 9 mph 996.9mb 41f 47f
10:54 6 9 mph 997mb 41f 47f
10:48 6 8 mph 997mb 41f -
10:42 5 9 mph 997mb 41f -
10:36 6 9 mph 997.1mb 41f -
10:30 7 9 mph 997.1mb 41f 47f
10:24 5 9 mph 997.2mb 41f 48f
10:18 7 9 mph 997.2mb 41f 48f
10:12 6 9 mph 997.3mb 41f 48f
10:06 3 7 mph 997.4mb 41f 48f
10:00 5 8 mph 997.5mb 41f 49f
9:54 6 9 mph 997.5mb 41f 49f
9:48 6 8 mph 997.5mb 42f 49f
9:42 6 8 mph 997.5mb 42f 49f
9:36 5 8 mph 997.6mb 42f 49f
9:30 3 8 mph 997.7mb 43f 49f
9:24 3 7 mph 997.7mb 43f 49f
9:18 5 7 mph 997.6mb 43f 49f
9:12 5 9 mph 997.7mb 42f 49f
9:06 5 8 mph 997.7mb 42f 49f
9:00 3 6 mph 997.7mb 42f 49f
8:54 3 7 mph 997.7mb 42f 49f
8:48 6 9 mph 997.7mb 43f 49f
8:42 5 9 mph 997.7mb 42f 49f
8:36 6 9 mph 997.7mb 42f 49f
8:30 2 8 mph 997.8mb 42f 49f
8:24 7 9 mph 997.8mb 42f 49f
8:18 6 10 mph 997.8mb 42f 49f
8:12 6 10 mph 997.8mb 42f 49f
8:06 8 10 mph 997.8mb 41f 49f
8:00 6 9 mph 997.9mb 42f 49f
7:54 7 9 mph 997.9mb 42f 49f
7:48 7 9 mph 997.9mb 42f 49f
7:42 6 8 mph 998mb 42f 49f
7:36 2 6 mph 998mb 42f 49f
7:30 1 6 mph 998.1mb 42f 49f
7:24 3 7 mph 998.1mb 42f 49f
7:18 3 5 mph 998.2mb 42f 49f
7:12 5 8 mph 998.2mb 42f 49f
7:06 6 10 mph 998.3mb 42f 49f
7:00 3 7 mph 998.3mb 42f 49f
6:54 6 10 mph 998.3mb 42f 49f
6:48 8 10 mph 998.3mb 42f 49f
6:42 7 10 mph 998.3mb 42f 49f
6:36 8 10 mph 998.4mb 42f 49f
6:30 9 11 mph 998.3mb 42f 50f
6:24 8 13 mph 998.3mb 42f 50f
6:18 6 11 mph 998.3mb 42f 50f
6:12 8 13 mph 998.3mb 43f 50f
6:06 9 11 mph 998.3mb 43f 50f
6:00 8 13 mph 998.3mb 43f 50f
5:54 10 13 mph 998.2mb 43f 50f
5:48 8 11 mph 998.2mb 43f 50f
5:42 6 10 mph 998.3mb 43f 49f
5:36 7 11 mph 998.3mb 43f 49f
5:30 7 10 mph 998.4mb 43f 50f
5:24 7 9 mph 998.4mb 43f 50f
5:18 7 9 mph 998.4mb 43f 49f
5:12 8 10 mph 998.5mb 43f 50f
5:06 9 13 mph 998.5mb 43f 51f
5:00 7 11 mph 998.6mb 43f 51f
4:54 9 14 mph 998.7mb 43f 51f
4:48 9 13 mph 998.6mb 43f 51f
4:42 7 10 mph 998.7mb 43f 50f
4:36 5 7 mph 998.7mb 43f 50f
4:30 2 5 mph 998.8mb 43f 49f
4:24 2 5 mph 998.9mb 43f 49f
4:18  -  2 mph 998.9mb 43f 48f
4:12  -  2 mph 999mb 43f 47f
4:06  -  2 mph 999mb 43f 48f
4:00 1
mph
999mb 43f 49f
3:54  -  mph 999.1mb 43f 49f
3:48  -  1 mph 999.1mb 43f 48f
3:42  -  2 mph 999.1mb 43f 47f
3:36 1 2 mph 999.1mb 43f 46f
3:30 1 2 mph 999.1mb 42f 47f
3:24 1 2 mph 999.2mb 42f 47f
3:18 2 3 mph 999.3mb 42f 47f
3:12 2 3 mph 999.4mb 42f 47f
3:06 3 5 mph 999.6mb 43f 46f
3:00 2 5 mph 999.7mb 43f 46f
2:54 1 2 mph 999.8mb 43f 48f
2:48 2 6 mph 999.8mb 43f 48f
2:42 3 7 mph 999.9mb 43f 50f
2:36 2 7 mph 1000mb 43f 53f
2:30 5 7 mph 1000mb 43f 52f
2:24 3 6 mph 1000.1mb 43f 52f
2:18 2 5 mph 1000.2mb 43f 52f
2:06 3 7 mph 1000.3mb 43f 51f
2:00 3 8 mph 1000.5mb 42f 51f
1:54 2 6 mph 1000.5mb 42f 52f
1:48  -  2 mph 1000.6mb 42f 53f
1:42 2 6 mph 1000.7mb 42f 52f
1:36 5 7 mph 1000.8mb 42f 51f
1:30 6 7 mph 1000.9mb 42f 50f
1:24 5 6 mph 1001mb 42f 49f
1:18 3 5 mph 1001.1mb 42f 48f
1:12 2 3 mph 1001.2mb 42f 47f
1:06 3 5 mph 1001.3mb 42f 46f
1:00 5 6 mph 1001.4mb 42f 46f
12:54 6
mph
1001.5mb 42f 45f
12:48 6
mph
1001.6mb 42f 46f
12:42 2 5 mph 1001.8mb 42f 46f